Terminal Aerodrome Forecast
Issued by NWS

Home | Current Version | Previous Version | Text Only | Print | Product List | Glossary On
Versions: 1 2 3 4 5 6 7 8 9 10 11 12 13 14 15 16 17 18 19 20 21 22 23 24 25 26
000
FTUS43 KGRR 241700
TAFJXN
TAF
KJXN 241740Z 2418/2518 22020G38KT P6SM -RA OVC020
     FM241900 24022G36KT 6SM -SHRA BR OVC015
     FM242100 25020G35KT 5SM -SHSN BR BKN015
     FM250400 24015G25KT P6SM -SHSN BKN015
     FM250900 26012KT P6SM -SHSN OVC015=

USA.gov is the U.S. government's official web portal to all federal, state and local government web resources and services.